sensor_id;sensor_type;location;lat;lon;timestamp;temperature;humidity
11569;DHT22;5840;46.894;15.542;2022-10-26T00:01:04;10.50;99.90
11569;DHT22;5840;46.894;15.542;2022-10-26T00:03:31;10.50;99.90
11569;DHT22;5840;46.894;15.542;2022-10-26T00:06:04;10.40;99.90
11569;DHT22;5840;46.894;15.542;2022-10-26T00:08:31;10.40;99.90
11569;DHT22;5840;46.894;15.542;2022-10-26T00:10:58;10.40;99.90
11569;DHT22;5840;46.894;15.542;2022-10-26T00:13:25;10.40;99.90
11569;DHT22;5840;46.894;15.542;2022-10-26T00:15:52;10.30;99.90
11569;DHT22;5840;46.894;15.542;2022-10-26T00:18:20;10.30;99.90
11569;DHT22;5840;46.894;15.542;2022-10-26T00:20:47;10.30;99.90
11569;DHT22;5840;46.894;15.542;2022-10-26T00:23:14;10.30;99.90
11569;DHT22;5840;46.894;15.542;2022-10-26T00:25:41;10.30;99.90
11569;DHT22;5840;46.894;15.542;2022-10-26T00:28:08;10.30;99.90
11569;DHT22;5840;46.894;15.542;2022-10-26T00:30:38;10.20;99.90
11569;DHT22;5840;46.894;15.542;2022-10-26T00:33:05;10.20;99.90
11569;DHT22;5840;46.894;15.542;2022-10-26T00:35:33;10.20;99.90
11569;DHT22;5840;46.894;15.542;2022-10-26T00:38:00;10.20;99.90
11569;DHT22;5840;46.894;15.542;2022-10-26T00:40:27;10.10;99.90
11569;DHT22;5840;46.894;15.542;2022-10-26T00:42:54;10.10;99.90
11569;DHT22;5840;46.894;15.542;2022-10-26T00:45:23;10.00;99.90
11569;DHT22;5840;46.894;15.542;2022-10-26T00:47:52;10.00;99.90
11569;DHT22;5840;46.894;15.542;2022-10-26T00:50:25;9.90;99.90
11569;DHT22;5840;46.894;15.542;2022-10-26T00:52:57;9.90;99.90
11569;DHT22;5840;46.894;15.542;2022-10-26T00:55:28;9.80;99.90
11569;DHT22;5840;46.894;15.542;2022-10-26T00:57:56;9.80;99.90
11569;DHT22;5840;46.894;15.542;2022-10-26T01:00:24;9.80;99.90
11569;DHT22;5840;46.894;15.542;2022-10-26T01:02:52;9.80;99.90
11569;DHT22;5840;46.894;15.542;2022-10-26T01:05:20;9.80;99.90
11569;DHT22;5840;46.894;15.542;2022-10-26T01:07:48;9.80;99.90
11569;DHT22;5840;46.894;15.542;2022-10-26T01:10:17;9.80;99.90
11569;DHT22;5840;46.894;15.542;2022-10-26T01:12:44;9.80;99.90
11569;DHT22;5840;46.894;15.542;2022-10-26T01:15:12;9.80;99.90
11569;DHT22;5840;46.894;15.542;2022-10-26T01:17:50;9.80;99.90
11569;DHT22;5840;46.894;15.542;2022-10-26T01:20:41;9.80;99.90
11569;DHT22;5840;46.894;15.542;2022-10-26T01:23:17;9.80;99.90
11569;DHT22;5840;46.894;15.542;2022-10-26T01:29:10;9.90;99.90
11569;DHT22;5840;46.894;15.542;2022-10-26T01:31:44;9.90;99.90
11569;DHT22;5840;46.894;15.542;2022-10-26T01:34:21;9.90;99.90
11569;DHT22;5840;46.894;15.542;2022-10-26T01:36:53;9.90;99.90
11569;DHT22;5840;46.894;15.542;2022-10-26T01:39:23;9.80;99.90
11569;DHT22;5840;46.894;15.542;2022-10-26T01:41:57;9.80;99.90
11569;DHT22;5840;46.894;15.542;2022-10-26T01:44:29;9.90;99.90
11569;DHT22;5840;46.894;15.542;2022-10-26T01:47:00;9.90;99.90
11569;DHT22;5840;46.894;15.542;2022-10-26T01:49:33;9.90;99.90
11569;DHT22;5840;46.894;15.542;2022-10-26T01:52:01;9.90;99.90
11569;DHT22;5840;46.894;15.542;2022-10-26T01:54:28;9.90;99.90
11569;DHT22;5840;46.894;15.542;2022-10-26T01:56:58;9.90;99.90
11569;DHT22;5840;46.894;15.542;2022-10-26T01:59:39;9.80;99.90
11569;DHT22;5840;46.894;15.542;2022-10-26T02:05:30;9.80;99.90
11569;DHT22;5840;46.894;15.542;2022-10-26T02:08:06;9.80;99.90
11569;DHT22;5840;46.894;15.542;2022-10-26T02:10:45;9.80;99.90
11569;DHT22;5840;46.894;15.542;2022-10-26T02:13:18;9.80;99.90
11569;DHT22;5840;46.894;15.542;2022-10-26T02:15:51;9.80;99.90
11569;DHT22;5840;46.894;15.542;2022-10-26T02:18:26;9.80;99.90
11569;DHT22;5840;46.894;15.542;2022-10-26T02:21:00;9.80;99.90
11569;DHT22;5840;46.894;15.542;2022-10-26T02:23:31;9.80;99.90
11569;DHT22;5840;46.894;15.542;2022-10-26T02:26:02;9.80;99.90
11569;DHT22;5840;46.894;15.542;2022-10-26T02:28:34;9.80;99.90
11569;DHT22;5840;46.894;15.542;2022-10-26T02:31:03;9.80;99.90
11569;DHT22;5840;46.894;15.542;2022-10-26T02:33:36;9.80;99.90
11569;DHT22;5840;46.894;15.542;2022-10-26T02:36:08;9.80;99.90
11569;DHT22;5840;46.894;15.542;2022-10-26T02:38:39;9.80;99.90
11569;DHT22;5840;46.894;15.542;2022-10-26T02:41:10;9.70;99.90
11569;DHT22;5840;46.894;15.542;2022-10-26T02:43:43;9.70;99.90
11569;DHT22;5840;46.894;15.542;2022-10-26T02:46:14;9.70;99.90
11569;DHT22;5840;46.894;15.542;2022-10-26T02:48:42;9.70;99.90
11569;DHT22;5840;46.894;15.542;2022-10-26T02:51:13;9.70;99.90
11569;DHT22;5840;46.894;15.542;2022-10-26T02:53:47;9.70;99.90
11569;DHT22;5840;46.894;15.542;2022-10-26T02:56:21;9.70;99.90
11569;DHT22;5840;46.894;15.542;2022-10-26T02:58:54;9.60;99.90
11569;DHT22;5840;46.894;15.542;2022-10-26T03:01:23;9.60;99.90
11569;DHT22;5840;46.894;15.542;2022-10-26T03:03:50;9.60;99.90
11569;DHT22;5840;46.894;15.542;2022-10-26T03:06:22;9.50;99.90
11569;DHT22;5840;46.894;15.542;2022-10-26T03:08:49;9.50;99.90
11569;DHT22;5840;46.894;15.542;2022-10-26T03:11:16;9.50;99.90
11569;DHT22;5840;46.894;15.542;2022-10-26T03:13:44;9.50;99.90
11569;DHT22;5840;46.894;15.542;2022-10-26T03:16:11;9.40;99.90
11569;DHT22;5840;46.894;15.542;2022-10-26T03:18:38;9.40;99.90
11569;DHT22;5840;46.894;15.542;2022-10-26T03:21:05;9.40;99.90
11569;DHT22;5840;46.894;15.542;2022-10-26T03:23:34;9.30;99.90
11569;DHT22;5840;46.894;15.542;2022-10-26T03:26:01;9.30;99.90
11569;DHT22;5840;46.894;15.542;2022-10-26T03:28:27;9.30;99.90
11569;DHT22;5840;46.894;15.542;2022-10-26T03:30:54;9.20;99.90
11569;DHT22;5840;46.894;15.542;2022-10-26T03:33:21;9.20;99.90
11569;DHT22;5840;46.894;15.542;2022-10-26T03:35:53;9.20;99.90
11569;DHT22;5840;46.894;15.542;2022-10-26T03:38:21;9.20;99.90
11569;DHT22;5840;46.894;15.542;2022-10-26T03:40:49;9.20;99.90
11569;DHT22;5840;46.894;15.542;2022-10-26T03:43:16;9.20;99.90
11569;DHT22;5840;46.894;15.542;2022-10-26T03:45:43;9.20;99.90
11569;DHT22;5840;46.894;15.542;2022-10-26T03:48:10;9.20;99.90
11569;DHT22;5840;46.894;15.542;2022-10-26T03:50:37;9.20;99.90
11569;DHT22;5840;46.894;15.542;2022-10-26T03:53:03;9.20;99.90
11569;DHT22;5840;46.894;15.542;2022-10-26T03:55:30;9.10;99.90
11569;DHT22;5840;46.894;15.542;2022-10-26T03:57:59;9.10;99.90
11569;DHT22;5840;46.894;15.542;2022-10-26T04:00:26;9.00;99.90
11569;DHT22;5840;46.894;15.542;2022-10-26T04:02:54;8.90;99.90
11569;DHT22;5840;46.894;15.542;2022-10-26T04:05:21;8.80;99.90
11569;DHT22;5840;46.894;15.542;2022-10-26T04:07:51;8.80;99.90
11569;DHT22;5840;46.894;15.542;2022-10-26T04:10:18;8.80;99.90
11569;DHT22;5840;46.894;15.542;2022-10-26T04:12:45;8.80;99.90
11569;DHT22;5840;46.894;15.542;2022-10-26T04:15:14;8.80;99.90
11569;DHT22;5840;46.894;15.542;2022-10-26T04:17:41;8.80;99.90
11569;DHT22;5840;46.894;15.542;2022-10-26T04:20:09;8.80;99.90
11569;DHT22;5840;46.894;15.542;2022-10-26T04:22:36;8.80;99.90
11569;DHT22;5840;46.894;15.542;2022-10-26T04:25:03;8.80;99.90
11569;DHT22;5840;46.894;15.542;2022-10-26T04:27:31;8.80;99.90
11569;DHT22;5840;46.894;15.542;2022-10-26T04:29:58;8.80;99.90
11569;DHT22;5840;46.894;15.542;2022-10-26T04:32:26;8.80;99.90
11569;DHT22;5840;46.894;15.542;2022-10-26T04:34:53;8.90;99.90
11569;DHT22;5840;46.894;15.542;2022-10-26T04:37:20;8.90;99.90
11569;DHT22;5840;46.894;15.542;2022-10-26T04:39:47;8.90;99.90
11569;DHT22;5840;46.894;15.542;2022-10-26T04:42:14;8.90;99.90
11569;DHT22;5840;46.894;15.542;2022-10-26T04:44:41;8.90;99.90
11569;DHT22;5840;46.894;15.542;2022-10-26T04:47:08;8.90;99.90
11569;DHT22;5840;46.894;15.542;2022-10-26T04:49:36;8.80;99.90
11569;DHT22;5840;46.894;15.542;2022-10-26T04:52:04;8.80;99.90
11569;DHT22;5840;46.894;15.542;2022-10-26T04:54:31;8.80;99.90
11569;DHT22;5840;46.894;15.542;2022-10-26T04:56:58;8.70;99.90
11569;DHT22;5840;46.894;15.542;2022-10-26T04:59:25;8.70;99.90
11569;DHT22;5840;46.894;15.542;2022-10-26T05:01:52;8.70;99.90
11569;DHT22;5840;46.894;15.542;2022-10-26T05:04:19;8.70;99.90
11569;DHT22;5840;46.894;15.542;2022-10-26T05:06:47;8.70;99.90
11569;DHT22;5840;46.894;15.542;2022-10-26T05:09:14;8.70;99.90
11569;DHT22;5840;46.894;15.542;2022-10-26T05:11:41;8.80;99.90
11569;DHT22;5840;46.894;15.542;2022-10-26T05:14:08;8.80;99.90
11569;DHT22;5840;46.894;15.542;2022-10-26T05:16:35;8.80;99.90
11569;DHT22;5840;46.894;15.542;2022-10-26T05:19:02;8.80;99.90
11569;DHT22;5840;46.894;15.542;2022-10-26T05:21:29;8.80;99.90
11569;DHT22;5840;46.894;15.542;2022-10-26T05:23:57;8.80;99.90
11569;DHT22;5840;46.894;15.542;2022-10-26T05:26:24;8.80;99.90
11569;DHT22;5840;46.894;15.542;2022-10-26T05:28:51;8.80;99.90
11569;DHT22;5840;46.894;15.542;2022-10-26T05:31:19;8.80;99.90
11569;DHT22;5840;46.894;15.542;2022-10-26T05:33:48;8.80;99.90
11569;DHT22;5840;46.894;15.542;2022-10-26T05:36:16;8.90;99.90
11569;DHT22;5840;46.894;15.542;2022-10-26T05:38:43;8.80;99.90
11569;DHT22;5840;46.894;15.542;2022-10-26T05:41:11;8.80;99.90
11569;DHT22;5840;46.894;15.542;2022-10-26T05:43:38;8.90;99.90
11569;DHT22;5840;46.894;15.542;2022-10-26T05:46:05;8.90;99.90
11569;DHT22;5840;46.894;15.542;2022-10-26T05:48:32;8.90;99.90
11569;DHT22;5840;46.894;15.542;2022-10-26T05:50:59;8.90;99.90
11569;DHT22;5840;46.894;15.542;2022-10-26T05:53:27;8.90;99.90
11569;DHT22;5840;46.894;15.542;2022-10-26T05:55:54;8.90;99.90
11569;DHT22;5840;46.894;15.542;2022-10-26T05:58:23;8.90;99.90
11569;DHT22;5840;46.894;15.542;2022-10-26T06:01:04;8.80;99.90
11569;DHT22;5840;46.894;15.542;2022-10-26T06:03:44;8.80;99.90
11569;DHT22;5840;46.894;15.542;2022-10-26T06:06:15;8.80;99.90
11569;DHT22;5840;46.894;15.542;2022-10-26T06:08:42;8.90;99.90
11569;DHT22;5840;46.894;15.542;2022-10-26T06:11:10;8.90;99.90
11569;DHT22;5840;46.894;15.542;2022-10-26T06:13:39;8.90;99.90
11569;DHT22;5840;46.894;15.542;2022-10-26T06:16:18;9.00;99.90
11569;DHT22;5840;46.894;15.542;2022-10-26T06:18:53;9.00;99.90
11569;DHT22;5840;46.894;15.542;2022-10-26T06:21:33;9.10;99.90
11569;DHT22;5840;46.894;15.542;2022-10-26T06:24:06;9.20;99.90
11569;DHT22;5840;46.894;15.542;2022-10-26T06:26:41;9.20;99.90
11569;DHT22;5840;46.894;15.542;2022-10-26T06:29:21;9.20;99.90
11569;DHT22;5840;46.894;15.542;2022-10-26T06:31:49;9.30;99.90
11569;DHT22;5840;46.894;15.542;2022-10-26T06:34:22;9.30;99.90
11569;DHT22;5840;46.894;15.542;2022-10-26T06:36:51;9.20;99.90
11569;DHT22;5840;46.894;15.542;2022-10-26T06:39:19;9.20;99.90
11569;DHT22;5840;46.894;15.542;2022-10-26T06:41:47;9.20;99.90
11569;DHT22;5840;46.894;15.542;2022-10-26T06:44:21;9.20;99.90
11569;DHT22;5840;46.894;15.542;2022-10-26T06:46:52;9.20;99.90
11569;DHT22;5840;46.894;15.542;2022-10-26T06:49:26;9.20;99.90
11569;DHT22;5840;46.894;15.542;2022-10-26T06:51:57;9.30;99.90
11569;DHT22;5840;46.894;15.542;2022-10-26T06:54:28;9.30;99.90
11569;DHT22;5840;46.894;15.542;2022-10-26T06:56:58;9.40;99.90
11569;DHT22;5840;46.894;15.542;2022-10-26T06:59:34;9.40;99.90
11569;DHT22;5840;46.894;15.542;2022-10-26T07:02:02;9.40;99.90
11569;DHT22;5840;46.894;15.542;2022-10-26T07:04:29;9.40;99.90
11569;DHT22;5840;46.894;15.542;2022-10-26T07:06:56;9.40;99.90
11569;DHT22;5840;46.894;15.542;2022-10-26T07:09:23;9.40;99.90
11569;DHT22;5840;46.894;15.542;2022-10-26T07:11:50;9.40;99.90
11569;DHT22;5840;46.894;15.542;2022-10-26T07:14:17;9.50;99.90
11569;DHT22;5840;46.894;15.542;2022-10-26T07:16:45;9.50;99.90
11569;DHT22;5840;46.894;15.542;2022-10-26T07:19:12;9.50;99.90
11569;DHT22;5840;46.894;15.542;2022-10-26T07:21:39;9.60;99.90
11569;DHT22;5840;46.894;15.542;2022-10-26T07:24:06;9.60;99.90
11569;DHT22;5840;46.894;15.542;2022-10-26T07:26:33;9.70;99.90
11569;DHT22;5840;46.894;15.542;2022-10-26T07:29:00;9.70;99.90
11569;DHT22;5840;46.894;15.542;2022-10-26T07:31:27;9.80;99.90
11569;DHT22;5840;46.894;15.542;2022-10-26T07:33:55;9.90;99.90
11569;DHT22;5840;46.894;15.542;2022-10-26T07:36:22;10.00;99.90
11569;DHT22;5840;46.894;15.542;2022-10-26T07:38:51;10.10;99.90
11569;DHT22;5840;46.894;15.542;2022-10-26T07:41:18;10.10;99.90
11569;DHT22;5840;46.894;15.542;2022-10-26T07:43:46;10.20;99.90
11569;DHT22;5840;46.894;15.542;2022-10-26T07:46:15;10.10;99.90
11569;DHT22;5840;46.894;15.542;2022-10-26T07:48:42;10.00;99.90
11569;DHT22;5840;46.894;15.542;2022-10-26T07:51:10;9.90;99.90
11569;DHT22;5840;46.894;15.542;2022-10-26T07:53:37;9.90;99.90
11569;DHT22;5840;46.894;15.542;2022-10-26T07:56:05;9.90;99.90
11569;DHT22;5840;46.894;15.542;2022-10-26T07:58:32;10.00;99.90
11569;DHT22;5840;46.894;15.542;2022-10-26T08:01:04;9.90;99.90
11569;DHT22;5840;46.894;15.542;2022-10-26T08:03:32;10.00;99.90
11569;DHT22;5840;46.894;15.542;2022-10-26T08:05:58;10.00;99.90
11569;DHT22;5840;46.894;15.542;2022-10-26T08:08:27;10.00;99.90
11569;DHT22;5840;46.894;15.542;2022-10-26T08:10:54;10.00;99.90
11569;DHT22;5840;46.894;15.542;2022-10-26T08:13:21;10.00;99.90
11569;DHT22;5840;46.894;15.542;2022-10-26T08:15:48;10.10;99.90
11569;DHT22;5840;46.894;15.542;2022-10-26T08:18:15;10.20;99.90
11569;DHT22;5840;46.894;15.542;2022-10-26T08:20:42;10.30;99.90
11569;DHT22;5840;46.894;15.542;2022-10-26T08:23:09;10.40;99.90
11569;DHT22;5840;46.894;15.542;2022-10-26T08:25:37;10.50;99.90
11569;DHT22;5840;46.894;15.542;2022-10-26T08:28:04;10.50;99.90
11569;DHT22;5840;46.894;15.542;2022-10-26T08:30:32;10.60;99.90
11569;DHT22;5840;46.894;15.542;2022-10-26T08:32:59;10.60;99.90
11569;DHT22;5840;46.894;15.542;2022-10-26T08:35:27;10.70;99.90
11569;DHT22;5840;46.894;15.542;2022-10-26T08:37:54;10.70;99.90
11569;DHT22;5840;46.894;15.542;2022-10-26T08:40:24;10.80;99.90
11569;DHT22;5840;46.894;15.542;2022-10-26T08:42:56;10.80;99.90
11569;DHT22;5840;46.894;15.542;2022-10-26T08:45:27;10.90;99.90
11569;DHT22;5840;46.894;15.542;2022-10-26T08:47:57;11.00;99.90
11569;DHT22;5840;46.894;15.542;2022-10-26T08:50:26;11.00;99.90
11569;DHT22;5840;46.894;15.542;2022-10-26T08:52:58;11.00;99.90
11569;DHT22;5840;46.894;15.542;2022-10-26T08:55:37;11.00;99.90
11569;DHT22;5840;46.894;15.542;2022-10-26T08:58:12;11.10;99.90
11569;DHT22;5840;46.894;15.542;2022-10-26T09:00:40;11.10;99.90
11569;DHT22;5840;46.894;15.542;2022-10-26T09:03:12;11.20;99.90
11569;DHT22;5840;46.894;15.542;2022-10-26T09:05:47;11.20;99.90
11569;DHT22;5840;46.894;15.542;2022-10-26T09:08:22;11.20;99.90
11569;DHT22;5840;46.894;15.542;2022-10-26T09:10:56;11.10;99.90
11569;DHT22;5840;46.894;15.542;2022-10-26T09:13:34;11.30;99.90
11569;DHT22;5840;46.894;15.542;2022-10-26T09:16:07;11.40;99.90
11569;DHT22;5840;46.894;15.542;2022-10-26T09:18:47;11.60;99.90
11569;DHT22;5840;46.894;15.542;2022-10-26T09:21:27;11.80;99.90
11569;DHT22;5840;46.894;15.542;2022-10-26T09:24:03;12.00;99.90
11569;DHT22;5840;46.894;15.542;2022-10-26T09:26:36;12.00;99.90
11569;DHT22;5840;46.894;15.542;2022-10-26T09:29:10;12.10;99.90
11569;DHT22;5840;46.894;15.542;2022-10-26T09:31:42;12.10;99.90
11569;DHT22;5840;46.894;15.542;2022-10-26T09:34:17;12.10;99.90
11569;DHT22;5840;46.894;15.542;2022-10-26T09:36:46;12.20;99.90
11569;DHT22;5840;46.894;15.542;2022-10-26T09:39:19;12.20;99.90
11569;DHT22;5840;46.894;15.542;2022-10-26T09:41:54;12.30;99.90
11569;DHT22;5840;46.894;15.542;2022-10-26T09:44:27;12.40;99.90
11569;DHT22;5840;46.894;15.542;2022-10-26T09:46:59;12.40;99.90
11569;DHT22;5840;46.894;15.542;2022-10-26T09:49:34;12.50;99.90
11569;DHT22;5840;46.894;15.542;2022-10-26T09:52:02;12.50;99.90
11569;DHT22;5840;46.894;15.542;2022-10-26T09:54:29;12.50;99.90
11569;DHT22;5840;46.894;15.542;2022-10-26T09:56:58;12.50;99.90
11569;DHT22;5840;46.894;15.542;2022-10-26T09:59:29;12.60;99.90
11569;DHT22;5840;46.894;15.542;2022-10-26T10:01:59;12.50;99.90
11569;DHT22;5840;46.894;15.542;2022-10-26T10:04:29;12.60;99.90
11569;DHT22;5840;46.894;15.542;2022-10-26T10:07:11;12.70;99.90
11569;DHT22;5840;46.894;15.542;2022-10-26T10:09:38;12.80;99.90
11569;DHT22;5840;46.894;15.542;2022-10-26T10:12:15;12.90;99.90
11569;DHT22;5840;46.894;15.542;2022-10-26T10:14:56;13.00;99.90
11569;DHT22;5840;46.894;15.542;2022-10-26T10:17:23;13.20;99.90
11569;DHT22;5840;46.894;15.542;2022-10-26T10:19:51;13.50;99.90
11569;DHT22;5840;46.894;15.542;2022-10-26T10:22:20;14.10;99.90
11569;DHT22;5840;46.894;15.542;2022-10-26T10:24:53;14.90;99.90
11569;DHT22;5840;46.894;15.542;2022-10-26T10:27:20;15.60;99.90
11569;DHT22;5840;46.894;15.542;2022-10-26T10:29:49;16.30;99.90
11569;DHT22;5840;46.894;15.542;2022-10-26T10:32:19;16.80;99.90
11569;DHT22;5840;46.894;15.542;2022-10-26T10:34:46;17.30;99.90
11569;DHT22;5840;46.894;15.542;2022-10-26T10:37:23;17.60;99.90
11569;DHT22;5840;46.894;15.542;2022-10-26T10:39:55;17.90;99.90
11569;DHT22;5840;46.894;15.542;2022-10-26T10:42:27;18.20;99.90
11569;DHT22;5840;46.894;15.542;2022-10-26T10:44:56;18.20;99.90
11569;DHT22;5840;46.894;15.542;2022-10-26T10:47:27;18.30;99.90
11569;DHT22;5840;46.894;15.542;2022-10-26T10:49:57;18.30;99.90
11569;DHT22;5840;46.894;15.542;2022-10-26T10:52:28;18.30;99.90
11569;DHT22;5840;46.894;15.542;2022-10-26T10:55:10;18.30;99.90
11569;DHT22;5840;46.894;15.542;2022-10-26T10:57:57;18.40;99.90
11569;DHT22;5840;46.894;15.542;2022-10-26T11:00:27;18.50;99.90
11569;DHT22;5840;46.894;15.542;2022-10-26T11:06:11;18.50;99.90
11569;DHT22;5840;46.894;15.542;2022-10-26T11:08:45;18.70;99.90
11569;DHT22;5840;46.894;15.542;2022-10-26T11:11:17;18.90;99.90
11569;DHT22;5840;46.894;15.542;2022-10-26T11:13:51;18.80;99.90
11569;DHT22;5840;46.894;15.542;2022-10-26T11:16:22;18.80;99.90
11569;DHT22;5840;46.894;15.542;2022-10-26T11:18:54;18.80;99.90
11569;DHT22;5840;46.894;15.542;2022-10-26T11:21:26;18.90;99.90
11569;DHT22;5840;46.894;15.542;2022-10-26T11:24:02;18.80;99.90
11569;DHT22;5840;46.894;15.542;2022-10-26T11:26:40;18.80;99.90
11569;DHT22;5840;46.894;15.542;2022-10-26T11:29:18;19.10;99.90
11569;DHT22;5840;46.894;15.542;2022-10-26T11:31:52;19.10;99.90
11569;DHT22;5840;46.894;15.542;2022-10-26T11:34:28;19.20;99.90
11569;DHT22;5840;46.894;15.542;2022-10-26T11:37:01;18.90;99.90
11569;DHT22;5840;46.894;15.542;2022-10-26T11:39:35;18.60;99.90
11569;DHT22;5840;46.894;15.542;2022-10-26T11:42:10;18.40;99.90
11569;DHT22;5840;46.894;15.542;2022-10-26T11:44:44;18.20;99.90
11569;DHT22;5840;46.894;15.542;2022-10-26T11:47:17;18.00;99.90
11569;DHT22;5840;46.894;15.542;2022-10-26T11:49:49;18.00;99.90
11569;DHT22;5840;46.894;15.542;2022-10-26T11:52:24;17.90;99.90
11569;DHT22;5840;46.894;15.542;2022-10-26T11:54:54;17.80;99.90
11569;DHT22;5840;46.894;15.542;2022-10-26T11:57:23;17.80;99.90
11569;DHT22;5840;46.894;15.542;2022-10-26T11:59:55;17.60;99.90
11569;DHT22;5840;46.894;15.542;2022-10-26T12:02:25;17.50;99.90
11569;DHT22;5840;46.894;15.542;2022-10-26T12:05:00;17.50;99.90
11569;DHT22;5840;46.894;15.542;2022-10-26T12:07:32;17.50;99.90
11569;DHT22;5840;46.894;15.542;2022-10-26T12:10:01;17.50;99.90
11569;DHT22;5840;46.894;15.542;2022-10-26T12:12:35;17.50;99.90
11569;DHT22;5840;46.894;15.542;2022-10-26T12:15:16;17.70;99.90
11569;DHT22;5840;46.894;15.542;2022-10-26T12:17:50;17.70;99.90
11569;DHT22;5840;46.894;15.542;2022-10-26T12:20:47;17.60;99.90
11569;DHT22;5840;46.894;15.542;2022-10-26T12:23:18;17.70;99.90
11569;DHT22;5840;46.894;15.542;2022-10-26T12:25:46;17.60;99.90
11569;DHT22;5840;46.894;15.542;2022-10-26T12:28:39;17.60;99.90
11569;DHT22;5840;46.894;15.542;2022-10-26T12:34:13;17.60;99.90
11569;DHT22;5840;46.894;15.542;2022-10-26T12:36:49;17.70;99.90
11569;DHT22;5840;46.894;15.542;2022-10-26T12:39:29;17.80;99.90
11569;DHT22;5840;46.894;15.542;2022-10-26T12:41:58;17.90;99.90
11569;DHT22;5840;46.894;15.542;2022-10-26T12:44:37;18.00;99.90
11569;DHT22;5840;46.894;15.542;2022-10-26T12:47:06;18.00;99.90
11569;DHT22;5840;46.894;15.542;2022-10-26T12:49:57;17.90;99.90
11569;DHT22;5840;46.894;15.542;2022-10-26T12:52:33;17.90;99.90
11569;DHT22;5840;46.894;15.542;2022-10-26T12:55:40;17.90;99.90
11569;DHT22;5840;46.894;15.542;2022-10-26T13:01:35;18.00;99.90
11569;DHT22;5840;46.894;15.542;2022-10-26T13:04:21;18.20;99.90
11569;DHT22;5840;46.894;15.542;2022-10-26T13:07:21;18.20;99.90
11569;DHT22;5840;46.894;15.542;2022-10-26T13:09:57;18.20;99.90
11569;DHT22;5840;46.894;15.542;2022-10-26T13:12:29;18.30;99.90
11569;DHT22;5840;46.894;15.542;2022-10-26T13:15:03;18.30;99.90
11569;DHT22;5840;46.894;15.542;2022-10-26T13:17:33;18.20;99.90
11569;DHT22;5840;46.894;15.542;2022-10-26T13:20:01;18.20;99.90
11569;DHT22;5840;46.894;15.542;2022-10-26T13:22:29;18.20;99.90
11569;DHT22;5840;46.894;15.542;2022-10-26T13:24:57;18.20;99.90
11569;DHT22;5840;46.894;15.542;2022-10-26T13:27:46;18.20;99.90
11569;DHT22;5840;46.894;15.542;2022-10-26T13:30:44;18.10;99.90
11569;DHT22;5840;46.894;15.542;2022-10-26T13:33:24;18.10;99.90
11569;DHT22;5840;46.894;15.542;2022-10-26T13:35:55;18.10;99.90
11569;DHT22;5840;46.894;15.542;2022-10-26T13:38:27;18.10;99.90
11569;DHT22;5840;46.894;15.542;2022-10-26T13:41:05;18.10;99.90
11569;DHT22;5840;46.894;15.542;2022-10-26T13:43:35;18.10;99.90
11569;DHT22;5840;46.894;15.542;2022-10-26T13:46:03;18.10;99.90
11569;DHT22;5840;46.894;15.542;2022-10-26T13:48:37;18.10;99.90
11569;DHT22;5840;46.894;15.542;2022-10-26T13:51:13;18.10;99.90
11569;DHT22;5840;46.894;15.542;2022-10-26T13:53:45;18.10;99.90
11569;DHT22;5840;46.894;15.542;2022-10-26T13:56:21;18.10;99.90
11569;DHT22;5840;46.894;15.542;2022-10-26T13:58:57;18.10;99.90
11569;DHT22;5840;46.894;15.542;2022-10-26T14:01:26;18.00;99.90
11569;DHT22;5840;46.894;15.542;2022-10-26T14:03:54;18.00;99.90
11569;DHT22;5840;46.894;15.542;2022-10-26T14:06:26;18.00;99.90
11569;DHT22;5840;46.894;15.542;2022-10-26T14:08:55;17.90;99.90
11569;DHT22;5840;46.894;15.542;2022-10-26T14:11:29;17.90;99.90
11569;DHT22;5840;46.894;15.542;2022-10-26T14:13:59;17.80;99.90
11569;DHT22;5840;46.894;15.542;2022-10-26T14:16:29;17.70;99.90
11569;DHT22;5840;46.894;15.542;2022-10-26T14:18:57;17.70;99.90
11569;DHT22;5840;46.894;15.542;2022-10-26T14:21:24;17.70;99.90
11569;DHT22;5840;46.894;15.542;2022-10-26T14:23:53;17.60;99.90
11569;DHT22;5840;46.894;15.542;2022-10-26T14:26:23;17.60;99.90
11569;DHT22;5840;46.894;15.542;2022-10-26T14:28:52;17.60;99.90
11569;DHT22;5840;46.894;15.542;2022-10-26T14:31:23;17.60;99.90
11569;DHT22;5840;46.894;15.542;2022-10-26T14:33:51;17.60;99.90
11569;DHT22;5840;46.894;15.542;2022-10-26T14:36:20;17.60;99.90
11569;DHT22;5840;46.894;15.542;2022-10-26T14:38:51;17.60;99.90
11569;DHT22;5840;46.894;15.542;2022-10-26T14:41:19;17.60;99.90
11569;DHT22;5840;46.894;15.542;2022-10-26T14:43:47;17.70;99.90
11569;DHT22;5840;46.894;15.542;2022-10-26T14:46:15;17.70;99.90
11569;DHT22;5840;46.894;15.542;2022-10-26T14:48:52;17.80;99.90
11569;DHT22;5840;46.894;15.542;2022-10-26T14:51:21;17.90;99.90
11569;DHT22;5840;46.894;15.542;2022-10-26T14:53:52;17.90;99.90
11569;DHT22;5840;46.894;15.542;2022-10-26T14:56:27;17.90;99.90
11569;DHT22;5840;46.894;15.542;2022-10-26T14:58:57;17.80;99.90
11569;DHT22;5840;46.894;15.542;2022-10-26T15:01:29;17.70;99.90
11569;DHT22;5840;46.894;15.542;2022-10-26T15:03:59;17.70;99.90
11569;DHT22;5840;46.894;15.542;2022-10-26T15:06:31;17.70;99.90
11569;DHT22;5840;46.894;15.542;2022-10-26T15:09:00;17.60;99.90
11569;DHT22;5840;46.894;15.542;2022-10-26T15:11:31;17.50;99.90
11569;DHT22;5840;46.894;15.542;2022-10-26T15:13:59;17.40;99.90
11569;DHT22;5840;46.894;15.542;2022-10-26T15:16:28;17.30;99.90
11569;DHT22;5840;46.894;15.542;2022-10-26T15:18:58;17.20;99.90
11569;DHT22;5840;46.894;15.542;2022-10-26T15:21:30;17.20;99.90
11569;DHT22;5840;46.894;15.542;2022-10-26T15:23:58;17.10;99.90
11569;DHT22;5840;46.894;15.542;2022-10-26T15:26:26;17.00;99.90
11569;DHT22;5840;46.894;15.542;2022-10-26T15:28:54;17.00;99.90
11569;DHT22;5840;46.894;15.542;2022-10-26T15:31:29;16.90;99.90
11569;DHT22;5840;46.894;15.542;2022-10-26T15:34:12;17.00;99.90
11569;DHT22;5840;46.894;15.542;2022-10-26T15:36:40;16.90;99.90
11569;DHT22;5840;46.894;15.542;2022-10-26T15:39:08;16.80;99.90
11569;DHT22;5840;46.894;15.542;2022-10-26T15:41:37;16.70;99.90
11569;DHT22;5840;46.894;15.542;2022-10-26T15:44:09;16.70;99.90
11569;DHT22;5840;46.894;15.542;2022-10-26T15:46:39;16.60;99.90
11569;DHT22;5840;46.894;15.542;2022-10-26T15:49:14;16.60;99.90
11569;DHT22;5840;46.894;15.542;2022-10-26T15:51:43;16.50;99.90
11569;DHT22;5840;46.894;15.542;2022-10-26T15:54:11;16.40;99.90
11569;DHT22;5840;46.894;15.542;2022-10-26T15:56:38;16.30;99.90
11569;DHT22;5840;46.894;15.542;2022-10-26T15:59:12;16.20;99.90
11569;DHT22;5840;46.894;15.542;2022-10-26T16:01:39;16.10;99.90
11569;DHT22;5840;46.894;15.542;2022-10-26T16:04:09;16.10;99.90
11569;DHT22;5840;46.894;15.542;2022-10-26T16:06:38;16.00;99.90
11569;DHT22;5840;46.894;15.542;2022-10-26T16:09:10;16.00;99.90
11569;DHT22;5840;46.894;15.542;2022-10-26T16:11:38;15.90;99.90
11569;DHT22;5840;46.894;15.542;2022-10-26T16:14:05;15.90;99.90
11569;DHT22;5840;46.894;15.542;2022-10-26T16:16:32;15.80;99.90